createdAt,value
2023-05-23T00:01:55.500Z,76.61
2023-05-23T00:03:58.400Z,76.43
2023-05-23T00:06:02.312Z,76.56
2023-05-23T00:08:05.025Z,76.58
2023-05-23T00:10:08.489Z,76.52
2023-05-23T00:12:12.398Z,76.35
2023-05-23T00:14:16.410Z,76.37
2023-05-23T00:16:19.213Z,76.32
2023-05-23T00:18:25.538Z,76.21
2023-05-23T00:20:28.859Z,75.94
2023-05-23T00:22:31.532Z,76.14
2023-05-23T00:24:34.108Z,76.09
2023-05-23T00:26:36.875Z,76.40
2023-05-23T00:28:39.468Z,75.99
2023-05-23T00:30:42.207Z,76.63
2023-05-23T00:32:44.874Z,76.74
2023-05-23T00:34:48.904Z,76.79
2023-05-23T00:36:51.455Z,76.99
2023-05-23T00:38:54.298Z,76.73
2023-05-23T00:40:56.903Z,77.34
2023-05-23T00:42:59.598Z,77.38
2023-05-23T00:45:02.180Z,77.75
2023-05-23T00:47:05.902Z,77.67
2023-05-23T00:49:08.744Z,77.49
2023-05-23T00:51:12.687Z,78.37
2023-05-23T00:53:15.359Z,78.90
2023-05-23T00:55:18.047Z,78.95
2023-05-23T00:57:20.667Z,79.19
2023-05-23T00:59:24.867Z,79.32
2023-05-23T01:01:28.008Z,79.30
2023-05-23T01:03:30.739Z,79.38
2023-05-23T01:05:33.512Z,79.49
2023-05-23T01:07:37.479Z,79.60
2023-05-23T01:09:40.149Z,79.72
2023-05-23T01:11:47.753Z,79.86
2023-05-23T01:14:00.118Z,79.88
2023-05-23T01:16:08.485Z,79.90
2023-05-23T01:18:15.398Z,80.00
2023-05-23T01:20:22.370Z,80.24
2023-05-23T01:22:50.547Z,79.56
2023-05-23T01:24:58.639Z,79.58
2023-05-23T01:27:10.182Z,79.59
2023-05-23T01:29:20.467Z,79.88
2023-05-23T01:31:25.638Z,79.80
2023-05-23T01:33:30.746Z,79.61
2023-05-23T01:35:33.862Z,79.94
2023-05-23T01:37:36.439Z,79.88
2023-05-23T01:39:39.757Z,79.77
2023-05-23T01:41:42.411Z,79.83
2023-05-23T01:43:48.128Z,80.56
2023-05-23T01:45:54.870Z,80.58
2023-05-23T01:47:58.384Z,81.05
2023-05-23T01:50:02.162Z,81.26
2023-05-23T01:52:10.246Z,81.20
2023-05-23T01:54:13.773Z,80.86
2023-05-23T01:56:16.499Z,81.45
2023-05-23T01:58:19.358Z,81.37
2023-05-23T02:00:22.442Z,81.09
2023-05-23T02:02:26.564Z,81.23
2023-05-23T02:04:29.382Z,80.89
2023-05-23T02:06:32.117Z,81.40
2023-05-23T02:08:34.709Z,81.72
2023-05-23T02:10:37.560Z,81.63
2023-05-23T02:12:40.206Z,81.61
2023-05-23T02:14:42.840Z,81.59
2023-05-23T02:16:45.758Z,81.34
2023-05-23T02:18:52.615Z,81.64
2023-05-23T02:20:56.230Z,81.77
2023-05-23T02:22:58.905Z,81.71
2023-05-23T02:25:01.499Z,80.98
2023-05-23T02:27:04.348Z,81.98
2023-05-23T02:29:06.990Z,82.46
2023-05-23T02:31:09.660Z,82.71
2023-05-23T02:33:12.344Z,82.94
2023-05-23T02:35:16.587Z,82.16
2023-05-23T02:37:19.198Z,82.72
2023-05-23T02:39:21.772Z,82.81
2023-05-23T02:41:24.376Z,82.58
2023-05-23T02:43:27.092Z,82.57
2023-05-23T02:45:29.721Z,82.84
2023-05-23T02:47:32.380Z,82.91
2023-05-23T02:49:34.999Z,82.81
2023-05-23T02:51:39.259Z,82.78
2023-05-23T02:53:42.257Z,82.33
2023-05-23T02:55:44.989Z,82.56
2023-05-23T02:57:47.611Z,82.67
2023-05-23T02:59:50.367Z,82.61
2023-05-23T03:01:52.977Z,82.75
2023-05-23T03:03:55.806Z,82.59
2023-05-23T03:05:58.675Z,82.57
2023-05-23T03:08:02.671Z,82.13
2023-05-23T03:10:06.069Z,81.91
2023-05-23T03:12:08.962Z,81.65
2023-05-23T03:14:11.758Z,81.46
2023-05-23T03:16:14.576Z,81.28
2023-05-23T03:18:17.445Z,81.16
2023-05-23T03:20:20.662Z,81.15
2023-05-23T03:22:23.418Z,81.37
2023-05-23T03:24:27.537Z,81.53
2023-05-23T03:26:30.838Z,81.53
2023-05-23T03:28:33.817Z,81.53
2023-05-23T03:30:36.568Z,81.79
2023-05-23T03:32:39.533Z,81.58
2023-05-23T03:34:42.368Z,81.52
2023-05-23T03:36:45.203Z,81.52
2023-05-23T03:38:48.008Z,81.23
2023-05-23T03:40:52.205Z,81.50
2023-05-23T03:43:03.871Z,81.35
2023-05-23T03:45:08.039Z,80.74
2023-05-23T03:47:10.994Z,80.94
2023-05-23T03:49:13.763Z,81.23
2023-05-23T03:51:16.636Z,80.06
2023-05-23T03:53:19.425Z,80.79
2023-05-23T03:55:24.219Z,81.07
2023-05-23T03:57:28.311Z,81.20
2023-05-23T03:59:31.152Z,81.26
2023-05-23T04:01:34.017Z,81.09
2023-05-23T04:03:37.041Z,80.97
2023-05-23T04:05:40.251Z,80.54
2023-05-23T04:07:43.316Z,80.97
2023-05-23T04:09:46.091Z,80.81
2023-05-23T04:11:49.227Z,80.36
2023-05-23T04:13:53.578Z,80.51
2023-05-23T04:15:57.230Z,80.92
2023-05-23T04:18:00.363Z,81.14
2023-05-23T04:20:03.302Z,80.91
2023-05-23T04:22:06.311Z,81.44
2023-05-23T04:24:09.178Z,81.42
2023-05-23T04:26:11.785Z,81.44
2023-05-23T04:28:14.403Z,81.71
2023-05-23T04:30:19.205Z,81.90
2023-05-23T04:32:23.086Z,81.95
2023-05-23T04:34:26.033Z,81.82
2023-05-23T04:36:28.835Z,81.97
2023-05-23T04:38:32.119Z,82.05
2023-05-23T04:40:34.718Z,82.06
2023-05-23T04:42:37.298Z,82.16
2023-05-23T04:44:39.888Z,82.22
2023-05-23T04:46:45.477Z,81.75
2023-05-23T04:48:48.533Z,81.60
2023-05-23T04:50:52.617Z,81.20
2023-05-23T04:52:56.241Z,81.14
2023-05-23T04:55:00.133Z,80.97
2023-05-23T04:57:02.768Z,81.27
2023-05-23T04:59:05.371Z,81.22
2023-05-23T05:01:09.874Z,81.04
2023-05-23T05:03:13.846Z,80.92
2023-05-23T05:05:16.453Z,81.32
2023-05-23T05:07:19.095Z,81.48
2023-05-23T05:09:22.129Z,81.82
2023-05-23T05:11:24.837Z,81.70
2023-05-23T05:13:27.453Z,81.92
2023-05-23T05:15:30.057Z,81.81
2023-05-23T05:17:36.902Z,82.37
2023-05-23T05:19:41.022Z,82.00
2023-05-23T05:21:43.696Z,82.38
2023-05-23T05:23:46.278Z,82.66
2023-05-23T05:25:48.833Z,82.65
2023-05-23T05:27:52.651Z,82.29
2023-05-23T05:30:00.719Z,82.33
2023-05-23T05:32:03.422Z,82.01
2023-05-23T05:34:06.073Z,82.17
2023-05-23T05:36:10.013Z,82.11
2023-05-23T05:38:12.673Z,82.22
2023-05-23T05:40:15.365Z,82.05
2023-05-23T05:42:17.975Z,82.39
2023-05-23T05:44:20.544Z,81.97
2023-05-23T05:46:23.667Z,82.35
2023-05-23T05:48:26.325Z,82.13
2023-05-23T05:50:28.993Z,82.27
2023-05-23T05:52:34.697Z,82.78
2023-05-23T05:54:37.653Z,83.20
2023-05-23T05:56:40.531Z,83.26
2023-05-23T05:58:43.232Z,83.02
2023-05-23T06:00:45.822Z,82.84
2023-05-23T06:02:51.437Z,83.40
2023-05-23T06:04:54.195Z,83.99
2023-05-23T06:06:56.908Z,83.99
2023-05-23T06:09:00.851Z,83.82
2023-05-23T06:11:03.455Z,83.54
2023-05-23T06:13:06.233Z,83.49
2023-05-23T06:15:09.885Z,83.76
2023-05-23T06:17:13.014Z,83.62
2023-05-23T06:19:16.600Z,83.33
2023-05-23T06:21:21.331Z,83.42
2023-05-23T06:23:23.967Z,82.95
2023-05-23T06:25:28.167Z,82.68
2023-05-23T06:27:30.738Z,83.10
2023-05-23T06:29:35.813Z,83.23
2023-05-23T06:31:38.468Z,83.33
2023-05-23T06:33:41.106Z,83.16
2023-05-23T06:35:43.868Z,82.44
2023-05-23T06:37:46.438Z,82.74
2023-05-23T06:39:49.031Z,82.81
2023-05-23T06:41:52.964Z,82.39
2023-05-23T06:43:55.567Z,82.31
2023-05-23T06:45:58.242Z,82.07
2023-05-23T06:48:01.313Z,81.99
2023-05-23T06:50:04.369Z,81.86
2023-05-23T06:52:06.989Z,81.92
2023-05-23T06:54:09.569Z,81.79
2023-05-23T06:56:12.226Z,81.89
2023-05-23T06:58:16.149Z,81.87
2023-05-23T07:00:19.783Z,81.08
2023-05-23T07:02:22.368Z,81.08
2023-05-23T07:04:24.966Z,81.37
2023-05-23T07:06:28.480Z,81.15
2023-05-23T07:08:31.147Z,81.28
2023-05-23T07:10:34.666Z,81.97
2023-05-23T07:12:37.376Z,82.33
2023-05-23T07:14:41.346Z,82.16
2023-05-23T07:16:43.988Z,82.32
2023-05-23T07:18:46.625Z,81.95
2023-05-23T07:20:49.287Z,81.80
2023-05-23T07:22:52.805Z,81.80
2023-05-23T07:24:55.442Z,81.49
2023-05-23T07:26:58.060Z,81.03
2023-05-23T07:29:02.878Z,80.76
2023-05-23T07:31:09.466Z,80.92
2023-05-23T07:33:12.296Z,80.07
2023-05-23T07:35:15.283Z,80.16
2023-05-23T07:37:21.312Z,79.99
2023-05-23T07:39:24.445Z,79.77
2023-05-23T07:41:27.245Z,79.88
2023-05-23T07:43:32.229Z,80.09
2023-05-23T07:45:34.895Z,79.86
2023-05-23T07:47:39.024Z,80.18
2023-05-23T07:49:41.622Z,79.36
2023-05-23T07:51:44.230Z,80.01
2023-05-23T07:53:46.881Z,80.41
2023-05-23T07:55:49.727Z,80.32
2023-05-23T07:57:52.640Z,79.91
2023-05-23T07:59:55.487Z,79.76
2023-05-23T08:01:58.157Z,79.23
2023-05-23T08:04:03.830Z,78.93
2023-05-23T08:06:07.413Z,78.60
2023-05-23T08:08:10.018Z,78.93
2023-05-23T08:10:12.759Z,78.48
2023-05-23T08:12:15.400Z,77.92
2023-05-23T08:14:18.212Z,78.72
2023-05-23T08:16:21.640Z,78.66
2023-05-23T08:18:24.523Z,78.33
2023-05-23T08:20:31.031Z,77.37
2023-05-23T08:22:33.709Z,77.43
2023-05-23T08:24:36.337Z,78.04
2023-05-23T08:26:38.923Z,77.49
2023-05-23T08:28:41.561Z,77.67
2023-05-23T08:30:44.422Z,77.50
2023-05-23T08:32:47.090Z,77.15
2023-05-23T08:34:50.068Z,77.22
2023-05-23T08:36:54.034Z,77.26
2023-05-23T08:38:56.637Z,77.06
2023-05-23T08:41:02.231Z,76.46
2023-05-23T08:43:05.474Z,75.71
2023-05-23T08:45:09.977Z,75.79
2023-05-23T08:47:14.428Z,75.85
2023-05-23T08:49:19.194Z,75.46
2023-05-23T08:51:23.406Z,74.82
2023-05-23T08:53:28.327Z,75.41
2023-05-23T08:55:31.521Z,75.48
2023-05-23T08:57:35.081Z,75.00
2023-05-23T08:59:40.028Z,74.41
2023-05-23T09:01:43.327Z,74.78
2023-05-23T09:03:45.924Z,74.89
2023-05-23T09:05:49.514Z,74.98
2023-05-23T09:07:52.240Z,75.08
2023-05-23T09:09:56.443Z,75.16
2023-05-23T09:12:01.077Z,74.00
2023-05-23T09:14:05.091Z,74.99
2023-05-23T09:16:08.949Z,74.40
2023-05-23T09:18:11.594Z,74.70
2023-05-23T09:20:15.382Z,74.93
2023-05-23T09:22:18.163Z,74.45
2023-05-23T09:24:20.820Z,74.41
2023-05-23T09:26:25.053Z,73.39
2023-05-23T09:28:27.724Z,74.08
2023-05-23T09:30:35.358Z,73.99
2023-05-23T09:32:38.331Z,72.65
2023-05-23T09:34:54.824Z,72.30
2023-05-23T09:36:57.610Z,72.64
2023-05-23T09:39:03.882Z,72.90
2023-05-23T09:41:06.626Z,73.04
2023-05-23T09:43:10.973Z,72.84
2023-05-23T09:45:14.422Z,72.86
2023-05-23T09:47:17.168Z,73.06
2023-05-23T09:49:20.690Z,72.73
2023-05-23T09:51:24.572Z,72.55
2023-05-23T09:53:27.528Z,72.36
2023-05-23T09:55:31.159Z,72.37
2023-05-23T09:57:37.075Z,72.11
2023-05-23T09:59:42.750Z,71.72
2023-05-23T10:01:51.164Z,71.58
2023-05-23T10:03:59.875Z,71.73
2023-05-23T10:06:09.186Z,71.49
2023-05-23T10:08:15.215Z,71.39
2023-05-23T10:10:18.006Z,71.02
2023-05-23T10:12:43.572Z,71.03
2023-05-23T10:14:56.037Z,70.61
2023-05-23T10:17:08.553Z,70.55
2023-05-23T10:19:18.906Z,70.79
2023-05-23T10:21:32.038Z,70.70
2023-05-23T10:23:35.044Z,70.80
2023-05-23T10:25:38.807Z,70.95
2023-05-23T10:27:41.568Z,70.99
2023-05-23T10:29:44.933Z,70.60
2023-05-23T10:31:49.841Z,70.87
2023-05-23T10:33:57.553Z,70.93
2023-05-23T10:36:11.227Z,71.02
2023-05-23T10:38:27.741Z,71.07
2023-05-23T10:40:44.194Z,70.81
2023-05-23T10:42:53.980Z,70.37
2023-05-23T10:45:15.504Z,69.99
2023-05-23T10:47:29.149Z,70.13
2023-05-23T10:49:44.929Z,69.87
2023-05-23T10:51:51.276Z,69.83
2023-05-23T10:53:55.692Z,69.46
2023-05-23T10:55:58.666Z,68.85
2023-05-23T10:58:12.120Z,68.19
2023-05-23T11:00:17.112Z,68.66
2023-05-23T11:02:26.156Z,68.47
2023-05-23T11:04:30.808Z,68.60
2023-05-23T11:06:38.914Z,68.40
2023-05-23T11:08:48.841Z,67.91
2023-05-23T11:11:00.663Z,67.77
2023-05-23T11:13:10.916Z,70.14
2023-05-23T11:15:21.604Z,69.44
2023-05-23T11:17:33.144Z,69.87
2023-05-23T11:19:50.085Z,69.70
2023-05-23T11:21:55.373Z,69.24
2023-05-23T11:23:58.355Z,68.95
2023-05-23T11:26:01.050Z,68.19
2023-05-23T11:28:05.383Z,67.93
2023-05-23T11:30:10.087Z,67.55
2023-05-23T11:32:17.185Z,67.00
2023-05-23T11:34:21.593Z,66.69
2023-05-23T11:36:26.076Z,66.91
2023-05-23T11:38:28.840Z,66.59
2023-05-23T11:40:33.489Z,66.55
2023-05-23T11:42:42.828Z,66.23
2023-05-23T11:44:49.577Z,65.73
2023-05-23T11:47:02.095Z,65.55
2023-05-23T11:49:12.077Z,65.76
2023-05-23T11:51:15.481Z,65.65
2023-05-23T11:53:22.192Z,65.77
2023-05-23T11:55:25.091Z,65.42
2023-05-23T11:57:28.097Z,65.26
2023-05-23T11:59:30.882Z,65.03
2023-05-23T12:01:34.633Z,64.62
2023-05-23T12:03:47.227Z,64.55
2023-05-23T12:05:49.982Z,64.37
2023-05-23T12:07:52.633Z,63.74
2023-05-23T12:09:58.207Z,63.70
2023-05-23T12:12:01.448Z,63.53
2023-05-23T12:14:06.492Z,63.26
2023-05-23T12:16:09.529Z,63.18
2023-05-23T12:18:13.178Z,63.45
2023-05-23T12:20:16.142Z,63.29
2023-05-23T12:22:24.977Z,63.77
2023-05-23T12:24:27.590Z,63.76
2023-05-23T12:26:32.041Z,63.47
2023-05-23T12:28:39.279Z,63.19
2023-05-23T12:30:43.207Z,63.03
2023-05-23T12:32:47.593Z,62.77
2023-05-23T12:34:51.096Z,62.50
2023-05-23T12:37:10.251Z,62.12
2023-05-23T12:39:26.117Z,62.14
2023-05-23T12:41:28.751Z,62.16
2023-05-23T12:43:33.619Z,61.70
2023-05-23T12:45:37.582Z,60.93
2023-05-23T12:47:41.046Z,60.74
2023-05-23T12:49:44.863Z,61.10
2023-05-23T12:51:47.834Z,60.80
2023-05-23T12:53:51.108Z,60.30
2023-05-23T12:55:53.717Z,60.11
2023-05-23T12:57:56.300Z,59.95
2023-05-23T13:00:00.496Z,59.66
2023-05-23T13:02:04.030Z,59.57
2023-05-23T13:04:06.713Z,60.26
2023-05-23T13:06:09.362Z,60.11
2023-05-23T13:08:13.003Z,59.38
2023-05-23T13:10:15.968Z,58.83
2023-05-23T13:12:19.393Z,59.08
2023-05-23T13:14:21.976Z,59.22
2023-05-23T13:16:26.089Z,58.52
2023-05-23T13:18:28.727Z,58.63
2023-05-23T13:20:31.349Z,58.89
2023-05-23T13:22:34.551Z,58.76
2023-05-23T13:24:37.600Z,59.19
2023-05-23T13:26:40.203Z,58.98
2023-05-23T13:28:42.837Z,58.74
2023-05-23T13:30:47.338Z,58.65
2023-05-23T13:32:52.050Z,57.45
2023-05-23T13:34:54.865Z,57.48
2023-05-23T13:36:57.528Z,56.53
2023-05-23T13:39:00.204Z,54.47
2023-05-23T13:41:02.805Z,52.84
2023-05-23T13:43:06.014Z,51.70
2023-05-23T13:45:10.033Z,51.71
2023-05-23T13:47:13.627Z,51.94
2023-05-23T13:49:17.648Z,52.14
2023-05-23T13:51:20.261Z,52.90
2023-05-23T13:53:23.098Z,53.26
2023-05-23T13:55:25.877Z,53.84
2023-05-23T13:57:28.563Z,54.05
2023-05-23T13:59:32.113Z,53.71
2023-05-23T14:01:34.770Z,53.12
2023-05-23T14:03:37.432Z,53.26
2023-05-23T14:05:41.497Z,53.40
2023-05-23T14:07:47.110Z,53.86
2023-05-23T14:09:49.738Z,53.89
2023-05-23T14:11:53.010Z,53.79
2023-05-23T14:13:57.882Z,53.66
2023-05-23T14:16:02.032Z,52.28
2023-05-23T14:18:05.045Z,51.04
2023-05-23T14:20:09.107Z,51.12
2023-05-23T14:22:13.100Z,50.97
2023-05-23T14:24:15.774Z,50.69
2023-05-23T14:26:18.386Z,51.28
2023-05-23T14:28:21.022Z,50.57
2023-05-23T14:30:24.974Z,51.47
2023-05-23T14:32:27.619Z,51.94
2023-05-23T14:34:30.506Z,52.29
2023-05-23T14:36:33.376Z,52.48
2023-05-23T14:38:39.116Z,52.58
2023-05-23T14:40:43.869Z,53.28
2023-05-23T14:42:47.127Z,53.98
2023-05-23T14:44:49.715Z,54.55
2023-05-23T14:46:52.428Z,54.54
2023-05-23T14:48:54.999Z,54.78
2023-05-23T14:51:01.991Z,55.05
2023-05-23T14:53:04.743Z,54.47
2023-05-23T14:55:09.807Z,53.17
2023-05-23T14:57:12.412Z,53.01
2023-05-23T14:59:15.479Z,52.74
2023-05-23T15:01:18.253Z,53.34
2023-05-23T15:03:21.002Z,53.64
2023-05-23T15:05:23.768Z,53.46
2023-05-23T15:07:26.425Z,53.62
2023-05-23T15:09:30.969Z,52.96
2023-05-23T15:11:39.027Z,52.65
2023-05-23T15:13:41.730Z,53.12
2023-05-23T15:15:44.351Z,53.03
2023-05-23T15:17:46.985Z,52.73
2023-05-23T15:19:49.703Z,52.44
2023-05-23T15:21:52.339Z,52.17
2023-05-23T15:23:55.811Z,52.37
2023-05-23T15:25:58.871Z,52.32
2023-05-23T15:28:02.810Z,52.45
2023-05-23T15:30:06.944Z,52.84
2023-05-23T15:32:09.810Z,51.95
2023-05-23T15:34:12.969Z,51.39
2023-05-23T15:36:15.687Z,51.45
2023-05-23T15:38:20.220Z,51.38
2023-05-23T15:40:23.947Z,51.26
2023-05-23T15:42:26.566Z,51.60
2023-05-23T15:44:30.482Z,51.54
2023-05-23T15:46:34.009Z,51.65
2023-05-23T15:48:36.686Z,51.77
2023-05-23T15:50:40.090Z,51.67
2023-05-23T15:52:42.857Z,51.56
2023-05-23T15:54:45.752Z,51.43
2023-05-23T15:56:48.354Z,51.53
2023-05-23T15:58:51.000Z,51.57
2023-05-23T16:00:54.976Z,51.33
2023-05-23T16:02:57.576Z,51.36
2023-05-23T16:05:00.286Z,51.71
2023-05-23T16:07:03.961Z,51.68
2023-05-23T16:09:06.642Z,51.90
2023-05-23T16:11:09.347Z,51.13
2023-05-23T16:13:11.989Z,50.84
2023-05-23T16:15:14.587Z,50.99
2023-05-23T16:17:18.910Z,50.83
2023-05-23T16:19:22.395Z,51.07
2023-05-23T16:21:25.010Z,51.28
2023-05-23T16:23:29.845Z,51.54
2023-05-23T16:25:32.641Z,51.89
2023-05-23T16:27:35.921Z,52.28
2023-05-23T16:29:38.585Z,52.66
2023-05-23T16:31:41.261Z,52.97
2023-05-23T16:33:45.849Z,52.99
2023-05-23T16:35:48.905Z,52.70
2023-05-23T16:37:51.528Z,53.04
2023-05-23T16:39:54.156Z,53.02
2023-05-23T16:41:58.713Z,53.03
2023-05-23T16:44:02.971Z,53.15
2023-05-23T16:46:05.898Z,53.49
2023-05-23T16:48:08.575Z,53.67
2023-05-23T16:50:13.910Z,53.03
2023-05-23T16:52:16.681Z,53.02
2023-05-23T16:54:19.892Z,53.08
2023-05-23T16:56:23.922Z,53.31
2023-05-23T16:58:26.560Z,53.91
2023-05-23T17:00:29.255Z,54.00
2023-05-23T17:02:31.923Z,54.07
2023-05-23T17:04:36.622Z,53.69
2023-05-23T17:06:40.559Z,53.34
2023-05-23T17:08:43.154Z,52.69
2023-05-23T17:10:45.808Z,52.62
2023-05-23T17:12:48.909Z,52.00
2023-05-23T17:14:51.519Z,51.26
2023-05-23T17:16:54.892Z,50.83
2023-05-23T17:18:57.523Z,51.02
2023-05-23T17:21:00.415Z,51.21
2023-05-23T17:23:05.367Z,51.04
2023-05-23T17:25:08.837Z,51.18
2023-05-23T17:27:11.443Z,51.39
2023-05-23T17:29:14.194Z,51.19
2023-05-23T17:31:16.810Z,51.36
2023-05-23T17:33:19.611Z,51.48
2023-05-23T17:35:23.354Z,51.90
2023-05-23T17:37:27.887Z,52.11
2023-05-23T17:39:31.828Z,52.45
2023-05-23T17:41:34.427Z,52.64
2023-05-23T17:43:37.896Z,52.81
2023-05-23T17:45:41.424Z,53.07
2023-05-23T17:47:44.176Z,53.19
2023-05-23T17:49:46.866Z,53.69
2023-05-23T17:51:50.864Z,53.86
2023-05-23T17:53:53.844Z,53.77
2023-05-23T17:55:58.368Z,54.07
2023-05-23T17:58:01.164Z,54.14
2023-05-23T18:00:04.029Z,54.17
2023-05-23T18:02:07.576Z,54.34
2023-05-23T18:04:10.257Z,53.99
2023-05-23T18:06:12.998Z,53.58
2023-05-23T18:08:15.655Z,53.95
2023-05-23T18:10:18.875Z,54.20
2023-05-23T18:12:23.839Z,54.24
2023-05-23T18:14:26.611Z,54.74
2023-05-23T18:16:29.345Z,54.88
2023-05-23T18:18:32.378Z,54.98
2023-05-23T18:20:35.561Z,55.10
2023-05-23T18:22:38.196Z,55.51
2023-05-23T18:24:41.771Z,55.49
2023-05-23T18:26:44.848Z,55.58
2023-05-23T18:28:48.807Z,56.09
2023-05-23T18:30:51.423Z,56.34
2023-05-23T18:32:54.168Z,56.33
2023-05-23T18:34:56.828Z,56.85
2023-05-23T18:36:59.421Z,57.21
2023-05-23T18:39:01.988Z,57.13
2023-05-23T18:41:04.616Z,57.59
2023-05-23T18:43:07.252Z,57.59
2023-05-23T18:45:12.338Z,57.90
2023-05-23T18:47:15.047Z,58.19
2023-05-23T18:49:17.678Z,58.39
2023-05-23T18:51:23.267Z,58.47
2023-05-23T18:53:25.888Z,58.69
2023-05-23T18:55:28.506Z,58.60
2023-05-23T18:57:32.207Z,58.42
2023-05-23T18:59:34.933Z,58.62
2023-05-23T19:01:38.966Z,58.62
2023-05-23T19:03:41.719Z,58.72
2023-05-23T19:05:44.509Z,58.41
2023-05-23T19:07:50.828Z,58.91
2023-05-23T19:09:53.435Z,58.83
2023-05-23T19:11:56.824Z,58.75
2023-05-23T19:14:00.319Z,59.02
2023-05-23T19:16:03.064Z,58.64
2023-05-23T19:18:07.910Z,58.81
2023-05-23T19:20:11.984Z,58.91
2023-05-23T19:22:14.712Z,59.30
2023-05-23T19:24:17.311Z,59.12
2023-05-23T19:26:20.615Z,59.41
2023-05-23T19:28:23.310Z,59.26
2023-05-23T19:30:25.918Z,59.04
2023-05-23T19:32:28.711Z,59.72
2023-05-23T19:34:32.940Z,59.68
2023-05-23T19:36:36.522Z,59.62
2023-05-23T19:38:39.139Z,60.04
2023-05-23T19:40:42.112Z,59.85
2023-05-23T19:42:45.820Z,59.99
2023-05-23T19:44:48.443Z,59.81
2023-05-23T19:46:51.027Z,59.96
2023-05-23T19:48:54.325Z,59.90
2023-05-23T19:50:58.797Z,59.94
2023-05-23T19:53:01.390Z,59.97
2023-05-23T19:55:04.190Z,60.06
2023-05-23T19:57:07.213Z,59.99
2023-05-23T19:59:09.841Z,60.04
2023-05-23T20:01:12.578Z,60.23
2023-05-23T20:03:15.344Z,59.97
2023-05-23T20:05:18.117Z,60.50
2023-05-23T20:07:22.055Z,60.67
2023-05-23T20:09:24.814Z,60.70
2023-05-23T20:11:28.972Z,60.74
2023-05-23T20:13:32.533Z,60.82
2023-05-23T20:15:45.007Z,60.87
2023-05-23T20:17:47.805Z,60.92
2023-05-23T20:19:50.625Z,61.03
2023-05-23T20:21:53.328Z,61.06
2023-05-23T20:23:57.353Z,61.11
2023-05-23T20:26:00.223Z,61.41
2023-05-23T20:28:05.239Z,61.33
2023-05-23T20:30:09.678Z,60.91
2023-05-23T20:32:12.280Z,61.62
2023-05-23T20:34:14.871Z,61.99
2023-05-23T20:36:20.902Z,61.89
2023-05-23T20:38:24.712Z,62.02
2023-05-23T20:40:29.544Z,61.93
2023-05-23T20:42:32.736Z,61.80
2023-05-23T20:44:37.725Z,61.96
2023-05-23T20:46:41.207Z,61.82
2023-05-23T20:48:44.750Z,61.65
2023-05-23T20:50:47.607Z,62.16
2023-05-23T20:52:50.277Z,62.36
2023-05-23T20:54:54.495Z,62.05
2023-05-23T20:56:59.734Z,62.44
2023-05-23T20:59:02.479Z,62.28
2023-05-23T21:01:05.266Z,62.42
2023-05-23T21:03:07.978Z,62.28
2023-05-23T21:05:11.565Z,62.34
2023-05-23T21:07:14.302Z,62.30
2023-05-23T21:09:17.722Z,62.47
2023-05-23T21:11:21.020Z,62.52
2023-05-23T21:13:25.053Z,62.63
2023-05-23T21:15:27.833Z,62.49
2023-05-23T21:17:30.476Z,62.55
2023-05-23T21:19:33.166Z,62.66
2023-05-23T21:21:36.746Z,62.83
2023-05-23T21:23:39.338Z,62.54
2023-05-23T21:25:41.933Z,62.86
2023-05-23T21:27:44.740Z,62.72
2023-05-23T21:29:48.649Z,62.79
2023-05-23T21:31:51.349Z,62.91
2023-05-23T21:33:54.021Z,62.55
2023-05-23T21:35:58.048Z,62.69
2023-05-23T21:38:01.877Z,62.75
2023-05-23T21:40:05.755Z,62.46
2023-05-23T21:42:08.577Z,62.18
2023-05-23T21:44:13.380Z,61.91
2023-05-23T21:46:17.568Z,61.80
2023-05-23T21:48:20.150Z,61.27
2023-05-23T21:50:22.840Z,60.90
2023-05-23T21:52:25.524Z,60.97
2023-05-23T21:54:28.434Z,61.02
2023-05-23T21:56:31.127Z,60.62
2023-05-23T21:58:33.714Z,60.45
2023-05-23T22:00:36.303Z,60.05
2023-05-23T22:02:40.648Z,59.77
2023-05-23T22:04:44.760Z,59.74
2023-05-23T22:06:47.580Z,59.59
2023-05-23T22:08:50.599Z,59.58
2023-05-23T22:10:53.274Z,59.51
2023-05-23T22:12:56.260Z,59.59
2023-05-23T22:14:58.958Z,59.58
2023-05-23T22:17:04.261Z,59.52
2023-05-23T22:19:09.751Z,59.65
2023-05-23T22:21:12.691Z,59.68
2023-05-23T22:23:17.202Z,59.86
2023-05-23T22:25:19.787Z,59.69
2023-05-23T22:27:22.539Z,59.83
2023-05-23T22:29:25.191Z,59.96
2023-05-23T22:31:28.734Z,59.77
2023-05-23T22:33:31.426Z,59.96
2023-05-23T22:35:35.409Z,59.95
2023-05-23T22:37:38.134Z,60.07
2023-05-23T22:39:40.742Z,60.17
2023-05-23T22:41:43.325Z,60.20
2023-05-23T22:43:46.773Z,59.88
2023-05-23T22:45:50.149Z,60.01
2023-05-23T22:47:54.114Z,60.15
2023-05-23T22:49:59.543Z,60.10
2023-05-23T22:52:03.499Z,59.98
2023-05-23T22:54:06.605Z,59.92
2023-05-23T22:56:09.237Z,59.93
2023-05-23T22:58:13.779Z,60.24
2023-05-23T23:00:16.905Z,60.16
2023-05-23T23:02:19.676Z,60.10
2023-05-23T23:04:23.568Z,60.01
2023-05-23T23:06:26.661Z,59.77
2023-05-23T23:08:30.618Z,59.98
2023-05-23T23:10:33.352Z,59.90
2023-05-23T23:12:36.270Z,59.69
2023-05-23T23:14:38.923Z,59.25
2023-05-23T23:16:42.645Z,59.44
2023-05-23T23:18:45.386Z,59.25
2023-05-23T23:20:48.353Z,59.18
2023-05-23T23:22:51.352Z,59.05
2023-05-23T23:24:55.715Z,59.33
2023-05-23T23:26:58.359Z,58.95
2023-05-23T23:29:00.967Z,59.47
2023-05-23T23:31:03.664Z,59.61
2023-05-23T23:33:06.367Z,59.63
2023-05-23T23:35:09.453Z,59.72
2023-05-23T23:37:12.080Z,60.00
2023-05-23T23:39:14.726Z,59.97
2023-05-23T23:41:18.844Z,59.87
2023-05-23T23:43:21.456Z,59.61
2023-05-23T23:45:24.254Z,60.04
2023-05-23T23:47:26.895Z,59.91
2023-05-23T23:49:29.693Z,59.58
2023-05-23T23:51:32.624Z,59.61
2023-05-23T23:53:35.236Z,59.78
2023-05-23T23:55:40.187Z,59.62
2023-05-23T23:57:44.148Z,59.58
2023-05-23T23:59:46.740Z,59.63
